Time;durP1;ratioP1;P1;durP2;ratioP2;P2;SDS_P1;SDS_P2;PMS_P1;PMS_P2;Temp;Humidity;BMP_temperature;BMP_pressure;BME280_temperature;BME280_humidity;BME280_pressure;Samples;Min_cycle;Max_cycle;Signal;HPM_P1;HPM_P2
2022/11/28 00:02:12;;;;;;;17.00;11.67;;;4.20;99.90;;;;;;5063030;28;20461;-52
2022/11/28 00:04:40;;;;;;;19.17;12.03;;;4.10;99.90;;;;;;5065826;28;20522;-52
2022/11/28 00:07:07;;;;;;;16.33;10.90;;;4.10;99.90;;;;;;5071551;28;20481;-51
2022/11/28 00:09:33;;;;;;;24.03;12.67;;;4.10;99.90;;;;;;5072837;28;20493;-51
2022/11/28 00:12:00;;;;;;;16.63;12.47;;;4.10;99.90;;;;;;5066536;28;20486;-51
2022/11/28 00:14:26;;;;;;;17.43;11.87;;;4.10;99.90;;;;;;5067785;28;20489;-51
2022/11/28 00:16:53;;;;;;;15.90;11.40;;;4.10;99.90;;;;;;5071732;28;20493;-51
2022/11/28 00:19:19;;;;;;;25.73;12.43;;;4.10;99.90;;;;;;5070114;28;21055;-51
2022/11/28 00:21:47;;;;;;;18.77;14.63;;;4.00;99.90;;;;;;5070711;28;20978;-51
2022/11/28 00:24:14;;;;;;;17.73;12.63;;;4.10;99.90;;;;;;5072245;28;20862;-52
2022/11/28 00:26:41;;;;;;;17.00;11.77;;;4.00;99.90;;;;;;5070982;28;20993;-51
2022/11/28 00:29:09;;;;;;;18.13;12.33;;;4.00;99.90;;;;;;5065389;28;20966;-52
2022/11/28 00:31:40;;;;;;;15.90;13.03;;;4.00;99.90;;;;;;5068522;28;20514;-51
2022/11/28 00:34:08;;;;;;;15.97;12.80;;;4.00;99.90;;;;;;5064383;28;20458;-52
2022/11/28 00:36:35;;;;;;;19.17;13.80;;;4.00;99.90;;;;;;5065525;28;20456;-51
2022/11/28 00:39:04;;;;;;;22.63;12.57;;;4.00;99.90;;;;;;5065194;28;20569;-50
2022/11/28 00:41:32;;;;;;;19.87;12.30;;;3.90;99.90;;;;;;5071721;28;20487;-51
2022/11/28 00:43:59;;;;;;;21.80;13.80;;;3.90;99.90;;;;;;5063968;28;20464;-52
2022/11/28 00:46:26;;;;;;;18.03;12.67;;;3.90;99.90;;;;;;5069652;28;20953;-51
2022/11/28 00:48:53;;;;;;;16.87;12.73;;;4.00;99.90;;;;;;5067760;28;20530;-51
2022/11/28 00:51:22;;;;;;;15.80;13.03;;;3.90;99.90;;;;;;5070034;28;20886;-51
2022/11/28 00:53:50;;;;;;;19.17;13.73;;;3.90;99.90;;;;;;5065611;28;20498;-51
2022/11/28 00:56:20;;;;;;;21.10;14.17;;;3.90;99.90;;;;;;5065929;28;20546;-51
2022/11/28 00:58:48;;;;;;;20.77;14.40;;;3.90;99.90;;;;;;5072121;28;20516;-51
2022/11/28 01:01:17;;;;;;;21.57;13.80;;;3.90;99.90;;;;;;5066858;28;20471;-51
2022/11/28 01:03:45;;;;;;;19.53;13.90;;;3.90;99.90;;;;;;5065623;28;20510;-51
2022/11/28 01:06:12;;;;;;;17.50;14.13;;;3.90;99.90;;;;;;5062359;28;20466;-51
2022/11/28 01:08:39;;;;;;;18.80;14.03;;;3.90;99.90;;;;;;5070605;28;20891;-51
2022/11/28 01:11:11;;;;;;;18.53;12.93;;;3.90;99.90;;;;;;5066392;28;20458;-52
2022/11/28 01:13:40;;;;;;;17.87;13.10;;;3.90;99.90;;;;;;5055549;28;20449;-52
2022/11/28 01:16:07;;;;;;;21.10;14.07;;;3.90;99.90;;;;;;5060422;28;20833;-52
2022/11/28 01:18:34;;;;;;;17.57;13.43;;;3.90;99.90;;;;;;5069499;28;20498;-51
2022/11/28 01:21:00;;;;;;;20.47;13.07;;;3.90;99.90;;;;;;5067729;28;21002;-52
2022/11/28 01:23:27;;;;;;;18.00;12.70;;;3.80;99.90;;;;;;5070064;28;20875;-51
2022/11/28 01:25:53;;;;;;;15.27;12.50;;;3.90;99.90;;;;;;5068261;28;20532;-51
2022/11/28 01:28:20;;;;;;;17.20;12.80;;;3.80;99.90;;;;;;5093273;23;21033;-51
2022/11/28 01:30:48;;;;;;;15.13;12.60;;;3.80;99.90;;;;;;5059570;28;20517;-51
2022/11/28 01:33:14;;;;;;;15.40;11.60;;;3.80;99.90;;;;;;5067760;28;20453;-52
2022/11/28 01:35:41;;;;;;;11.57;10.37;;;3.80;99.90;;;;;;5068956;28;20542;-52
2022/11/28 01:38:07;;;;;;;17.50;12.73;;;3.70;99.90;;;;;;5058875;28;20602;-52
2022/11/28 01:40:34;;;;;;;18.30;13.20;;;3.80;99.90;;;;;;5068673;28;20543;-52
2022/11/28 01:43:00;;;;;;;18.93;12.60;;;3.70;99.90;;;;;;5066615;28;20528;-51
2022/11/28 01:45:31;;;;;;;17.47;12.33;;;3.70;99.90;;;;;;5070955;28;20496;-51
2022/11/28 01:48:02;;;;;;;18.23;12.97;;;3.70;99.90;;;;;;5064994;28;20506;-51
2022/11/28 01:50:31;;;;;;;18.37;11.80;;;3.70;99.90;;;;;;5068528;28;20497;-51
2022/11/28 01:53:01;;;;;;;17.90;12.90;;;3.70;99.90;;;;;;5066483;28;20518;-50
2022/11/28 01:55:34;;;;;;;18.20;13.27;;;3.70;99.90;;;;;;5057183;28;20462;-51
2022/11/28 01:58:01;;;;;;;17.00;11.97;;;3.70;99.90;;;;;;5056419;28;20518;-51
2022/11/28 02:00:27;;;;;;;18.80;12.93;;;3.70;99.90;;;;;;5065864;28;20513;-52
2022/11/28 02:03:00;;;;;;;18.50;13.40;;;3.70;99.90;;;;;;5067345;28;20873;-50
2022/11/28 02:05:27;;;;;;;20.63;14.50;;;3.70;99.90;;;;;;5057860;28;20481;-52
2022/11/28 02:07:54;;;;;;;22.50;14.70;;;3.70;99.90;;;;;;5060015;28;20526;-52
2022/11/28 02:10:25;;;;;;;16.93;12.50;;;3.70;99.90;;;;;;5060824;28;20876;-55
2022/11/28 02:13:10;;;;;;;17.50;12.10;;;3.70;99.90;;;;;;5064996;28;20510;-54
2022/11/28 02:15:55;;;;;;;16.53;12.93;;;3.70;99.90;;;;;;5055545;28;20461;-54
2022/11/28 02:18:39;;;;;;;22.37;13.30;;;3.70;99.90;;;;;;5061707;28;20917;-55
2022/11/28 02:21:24;;;;;;;17.60;13.20;;;3.70;99.90;;;;;;5064941;28;20475;-55
2022/11/28 02:24:28;;;;;;;18.70;14.03;;;3.70;99.90;;;;;;5068864;28;20452;-53
2022/11/28 02:27:32;;;;;;;20.13;14.43;;;3.70;99.90;;;;;;5069438;28;20488;-55
2022/11/28 02:30:25;;;;;;;17.57;13.77;;;3.70;99.90;;;;;;5070742;28;20452;-55
2022/11/28 02:33:12;;;;;;;20.80;14.17;;;3.60;99.90;;;;;;5059653;28;20957;-55
2022/11/28 02:35:49;;;;;;;21.10;13.77;;;3.60;99.90;;;;;;5064768;28;20455;-55
2022/11/28 02:38:22;;;;;;;21.00;13.93;;;3.60;99.90;;;;;;5074563;28;20484;-54
2022/11/28 02:40:58;;;;;;;21.37;13.50;;;3.60;99.90;;;;;;5068381;28;20464;-54
2022/11/28 02:43:32;;;;;;;16.97;12.77;;;3.60;99.90;;;;;;5068494;28;20832;-55
2022/11/28 02:46:03;;;;;;;16.63;13.20;;;3.60;99.90;;;;;;5070950;28;20821;-54
2022/11/28 02:48:38;;;;;;;21.73;14.63;;;3.60;99.90;;;;;;5069038;28;20522;-54
2022/11/28 02:51:10;;;;;;;16.27;13.40;;;3.60;99.90;;;;;;5063270;28;20468;-55
2022/11/28 02:53:39;;;;;;;17.57;12.53;;;3.60;99.90;;;;;;5065124;28;20460;-55
2022/11/28 02:56:06;;;;;;;22.87;14.90;;;3.50;99.90;;;;;;5068914;28;20465;-56
2022/11/28 02:58:32;;;;;;;22.00;13.53;;;3.50;99.90;;;;;;5065232;28;20485;-54
2022/11/28 03:00:59;;;;;;;20.13;14.27;;;3.50;99.90;;;;;;5068599;28;20844;-54
2022/11/28 03:03:40;;;;;;;18.83;14.60;;;3.50;99.90;;;;;;5072090;28;21027;-54
2022/11/28 03:06:16;;;;;;;21.03;15.50;;;3.50;99.90;;;;;;5074645;28;20436;-54
2022/11/28 03:08:57;;;;;;;20.30;13.63;;;3.50;99.90;;;;;;5071976;28;20480;-53
2022/11/28 03:11:36;;;;;;;16.67;13.93;;;3.50;99.90;;;;;;5074132;28;20856;-55
2022/11/28 03:14:14;;;;;;;18.63;14.17;;;3.50;99.90;;;;;;5069170;28;20457;-54
2022/11/28 03:16:48;;;;;;;23.67;16.30;;;3.50;99.90;;;;;;5069873;28;20465;-54
2022/11/28 03:19:21;;;;;;;23.53;15.93;;;3.50;99.90;;;;;;5067045;28;21059;-54
2022/11/28 03:21:56;;;;;;;23.23;16.70;;;3.50;99.90;;;;;;5068593;28;20472;-54
2022/11/28 03:24:27;;;;;;;21.90;15.80;;;3.50;99.90;;;;;;5067476;28;21038;-54
2022/11/28 03:26:58;;;;;;;20.03;14.90;;;3.50;99.90;;;;;;5074088;28;20493;-54
2022/11/28 03:29:31;;;;;;;19.17;15.00;;;3.50;99.90;;;;;;5070124;28;21045;-55
2022/11/28 03:32:03;;;;;;;20.43;15.77;;;3.50;99.90;;;;;;5067262;28;20519;-53
2022/11/28 03:34:36;;;;;;;23.13;16.23;;;3.50;99.90;;;;;;5068812;28;20464;-53
2022/11/28 03:37:07;;;;;;;29.93;18.13;;;3.50;99.90;;;;;;5067428;28;20477;-55
2022/11/28 03:39:37;;;;;;;27.27;17.87;;;3.50;99.90;;;;;;5069848;28;20481;-54
2022/11/28 03:42:09;;;;;;;23.00;16.20;;;3.50;99.90;;;;;;5065731;28;20457;-54
2022/11/28 03:44:43;;;;;;;22.80;15.90;;;3.50;99.90;;;;;;5072837;28;20519;-54
2022/11/28 03:47:10;;;;;;;22.07;15.93;;;3.50;99.90;;;;;;5067669;28;20985;-54
2022/11/28 03:49:40;;;;;;;22.40;14.93;;;3.50;99.90;;;;;;5072488;28;20453;-54
2022/11/28 03:52:10;;;;;;;21.70;15.57;;;3.50;99.90;;;;;;5070579;28;20518;-56
2022/11/28 03:54:43;;;;;;;21.80;15.40;;;3.50;99.90;;;;;;5069996;28;20548;-55
2022/11/28 03:57:15;;;;;;;21.23;14.80;;;3.50;99.90;;;;;;5066058;28;20880;-54
2022/11/28 03:59:44;;;;;;;21.80;15.20;;;3.50;99.90;;;;;;5068936;28;20543;-56
2022/11/28 04:02:20;;;;;;;22.13;16.33;;;3.50;99.90;;;;;;5072054;28;20465;-55
2022/11/28 04:04:55;;;;;;;24.17;17.13;;;3.50;99.90;;;;;;5063911;28;20434;-55
2022/11/28 04:07:27;;;;;;;21.60;16.63;;;3.50;99.90;;;;;;5072429;28;20490;-55
2022/11/28 04:10:00;;;;;;;20.57;15.07;;;3.50;99.90;;;;;;5071502;28;20818;-55
2022/11/28 04:12:33;;;;;;;20.20;14.40;;;3.40;99.90;;;;;;5061841;28;20465;-54
2022/11/28 04:15:06;;;;;;;20.20;14.90;;;3.40;99.90;;;;;;5065009;28;20469;-55
2022/11/28 04:17:36;;;;;;;23.90;15.70;;;3.40;99.90;;;;;;5068788;28;20522;-54
2022/11/28 04:20:09;;;;;;;21.40;15.23;;;3.40;99.90;;;;;;5069146;28;20476;-54
2022/11/28 04:22:44;;;;;;;20.43;13.70;;;3.30;99.90;;;;;;5071125;28;20457;-54
2022/11/28 04:25:14;;;;;;;24.27;15.27;;;3.40;99.90;;;;;;5072565;28;20452;-54
2022/11/28 04:27:47;;;;;;;23.13;16.10;;;3.30;99.90;;;;;;5068677;28;20481;-54
2022/11/28 04:30:14;;;;;;;20.60;13.60;;;3.30;99.90;;;;;;5068355;28;20469;-53
2022/11/28 04:32:47;;;;;;;22.60;15.07;;;3.30;99.90;;;;;;5068400;28;20456;-55
2022/11/28 04:35:20;;;;;;;28.47;14.97;;;3.30;99.90;;;;;;5064817;28;20457;-55
2022/11/28 04:37:48;;;;;;;21.43;13.47;;;3.30;99.90;;;;;;5065787;28;21177;-54
2022/11/28 04:40:15;;;;;;;22.53;15.73;;;3.30;99.90;;;;;;5069943;28;20481;-54
2022/11/28 04:42:45;;;;;;;20.50;14.30;;;3.40;99.90;;;;;;5065899;28;20519;-54
2022/11/28 04:45:16;;;;;;;23.47;14.83;;;3.40;99.90;;;;;;5058770;28;20522;-55
2022/11/28 04:47:44;;;;;;;21.30;13.37;;;3.40;99.90;;;;;;5068651;28;20457;-54
2022/11/28 04:50:12;;;;;;;21.63;15.10;;;3.50;99.90;;;;;;5060957;28;20582;-54
2022/11/28 04:52:47;;;;;;;22.90;15.00;;;3.50;99.90;;;;;;5070629;28;20465;-54
2022/11/28 04:55:22;;;;;;;21.57;15.97;;;3.50;99.90;;;;;;5068287;28;20511;-54
2022/11/28 04:57:52;;;;;;;19.27;13.90;;;3.50;99.90;;;;;;5057411;28;21009;-56
2022/11/28 05:00:20;;;;;;;18.10;13.90;;;3.50;99.90;;;;;;5062179;28;20485;-54
2022/11/28 05:02:50;;;;;;;17.53;13.50;;;3.50;99.90;;;;;;5066819;28;20465;-55
2022/11/28 05:05:20;;;;;;;22.60;13.40;;;3.50;99.90;;;;;;5067623;28;20958;-54
2022/11/28 05:07:48;;;;;;;20.37;14.57;;;3.50;99.90;;;;;;5066169;28;20484;-52
2022/11/28 05:10:16;;;;;;;18.67;14.13;;;3.60;99.90;;;;;;5060457;28;20504;-52
2022/11/28 05:12:42;;;;;;;16.90;12.13;;;3.60;99.90;;;;;;5068685;28;20539;-52
2022/11/28 05:15:10;;;;;;;20.23;14.20;;;3.60;99.90;;;;;;5065694;28;20514;-52
2022/11/28 05:17:37;;;;;;;22.60;15.20;;;3.60;99.90;;;;;;5062127;28;20477;-52
2022/11/28 05:20:05;;;;;;;20.10;14.63;;;3.60;99.90;;;;;;5063776;28;20476;-52
2022/11/28 05:22:31;;;;;;;17.43;14.30;;;3.60;99.90;;;;;;5064344;28;20461;-52
2022/11/28 05:24:59;;;;;;;20.63;13.97;;;3.60;99.90;;;;;;5068225;28;20499;-52
2022/11/28 05:27:26;;;;;;;20.03;14.37;;;3.60;99.90;;;;;;5065912;28;21067;-52
2022/11/28 05:29:52;;;;;;;18.40;13.10;;;3.60;99.90;;;;;;5062792;28;20457;-51
2022/11/28 05:32:19;;;;;;;21.83;14.57;;;3.60;99.90;;;;;;5056794;28;20467;-51
2022/11/28 05:34:46;;;;;;;21.57;15.47;;;3.60;99.90;;;;;;5064167;28;21037;-53
2022/11/28 05:37:12;;;;;;;25.43;15.27;;;3.60;99.90;;;;;;5063700;28;20477;-52
2022/11/28 05:39:39;;;;;;;27.17;14.57;;;3.60;99.90;;;;;;5063299;28;20477;-52
2022/11/28 05:42:07;;;;;;;20.53;14.13;;;3.70;99.90;;;;;;5057314;28;20515;-52
2022/11/28 05:44:34;;;;;;;20.50;14.63;;;3.60;99.90;;;;;;5064132;28;20523;-52
2022/11/28 05:47:00;;;;;;;25.70;14.73;;;3.60;99.90;;;;;;5062804;28;20588;-52
2022/11/28 05:49:27;;;;;;;25.00;15.13;;;3.70;99.90;;;;;;5071781;28;20451;-52
2022/11/28 05:51:54;;;;;;;20.70;14.20;;;3.70;99.90;;;;;;5065862;28;20480;-52
2022/11/28 05:54:20;;;;;;;21.80;14.30;;;3.70;99.90;;;;;;5063593;28;20457;-52
2022/11/28 05:56:47;;;;;;;26.60;16.00;;;3.70;99.90;;;;;;5059684;28;20962;-52
2022/11/28 05:59:15;;;;;;;23.40;16.00;;;3.70;99.90;;;;;;5061232;28;20534;-51
2022/11/28 06:01:42;;;;;;;21.87;13.40;;;3.70;99.90;;;;;;5059920;28;20461;-52
2022/11/28 06:04:08;;;;;;;21.27;14.77;;;3.70;99.90;;;;;;5073574;28;20453;-52
2022/11/28 06:06:36;;;;;;;20.00;14.40;;;3.60;99.90;;;;;;5066394;28;20891;-52
2022/11/28 06:09:04;;;;;;;20.70;12.93;;;3.70;99.90;;;;;;5059489;28;20472;-52
2022/11/28 06:11:33;;;;;;;21.00;14.50;;;3.60;99.90;;;;;;5059707;28;20483;-52
2022/11/28 06:14:00;;;;;;;18.17;14.63;;;3.60;99.90;;;;;;5062332;28;20457;-51
2022/11/28 06:16:29;;;;;;;17.80;13.07;;;3.70;99.90;;;;;;5066423;28;20454;-53
2022/11/28 06:18:58;;;;;;;24.33;15.27;;;3.60;99.90;;;;;;5065287;28;20539;-51
2022/11/28 06:21:25;;;;;;;18.73;13.50;;;3.60;99.90;;;;;;5064237;28;20491;-50
2022/11/28 06:23:52;;;;;;;21.57;15.30;;;3.60;99.90;;;;;;5067322;28;21015;-51
2022/11/28 06:26:21;;;;;;;19.97;13.27;;;3.60;99.90;;;;;;5064445;28;20472;-50
2022/11/28 06:28:48;;;;;;;25.60;17.10;;;3.50;99.90;;;;;;5056495;28;20530;-51
2022/11/28 06:31:16;;;;;;;19.67;13.60;;;3.50;99.90;;;;;;5063699;28;20533;-51
2022/11/28 06:33:45;;;;;;;21.50;13.70;;;3.50;99.90;;;;;;5062792;28;20465;-51
2022/11/28 06:36:13;;;;;;;22.77;16.10;;;3.50;99.90;;;;;;5051242;28;20446;-51
2022/11/28 06:38:39;;;;;;;24.33;15.20;;;3.40;99.90;;;;;;5056913;28;20481;-52
2022/11/28 06:41:08;;;;;;;20.57;14.30;;;3.40;99.90;;;;;;5067255;28;20481;-50
2022/11/28 06:43:35;;;;;;;29.37;19.60;;;3.40;99.90;;;;;;5061360;28;20464;-52
2022/11/28 06:46:02;;;;;;;45.37;24.93;;;3.40;99.90;;;;;;5071598;28;20456;-52
2022/11/28 06:48:29;;;;;;;33.60;20.77;;;3.40;99.90;;;;;;5067281;28;20528;-50
2022/11/28 06:51:03;;;;;;;29.33;19.20;;;3.30;99.90;;;;;;5060323;28;20490;-51
2022/11/28 06:53:30;;;;;;;26.63;19.17;;;3.30;99.90;;;;;;5061985;28;20465;-51
2022/11/28 06:55:57;;;;;;;21.27;15.47;;;3.30;99.90;;;;;;5065830;28;20950;-52
2022/11/28 06:58:23;;;;;;;28.90;21.17;;;3.30;99.90;;;;;;5069453;28;20485;-51
2022/11/28 07:00:50;;;;;;;32.50;22.13;;;3.30;99.90;;;;;;5067457;28;20895;-52
2022/11/28 07:03:16;;;;;;;24.53;16.03;;;3.30;99.90;;;;;;5070073;28;20457;-52
2022/11/28 07:05:43;;;;;;;22.03;16.23;;;3.20;99.90;;;;;;5068447;28;20457;-52
2022/11/28 07:08:11;;;;;;;20.10;15.27;;;3.30;99.90;;;;;;5056598;28;20990;-50
2022/11/28 07:10:38;;;;;;;24.90;16.30;;;3.20;99.90;;;;;;5067297;28;20453;-51
2022/11/28 07:13:04;;;;;;;21.63;15.43;;;3.20;99.90;;;;;;5059918;28;20461;-51
2022/11/28 07:15:31;;;;;;;22.33;16.10;;;3.20;99.90;;;;;;5065007;28;20465;-50
2022/11/28 07:17:57;;;;;;;22.40;16.27;;;3.20;99.90;;;;;;5068951;28;20484;-51
2022/11/28 07:20:24;;;;;;;22.47;16.87;;;3.20;99.90;;;;;;5066628;28;21054;-50
2022/11/28 07:22:51;;;;;;;20.60;16.13;;;3.20;99.90;;;;;;5072915;28;20507;-50
2022/11/28 07:25:19;;;;;;;21.60;15.40;;;3.30;99.90;;;;;;5067292;28;20458;-50
2022/11/28 07:27:45;;;;;;;24.07;16.37;;;3.30;99.90;;;;;;5082142;22;20553;-50
2022/11/28 07:30:15;;;;;;;24.77;16.27;;;3.30;99.90;;;;;;5070268;28;20452;-50
2022/11/28 07:32:55;;;;;;;22.00;15.32;;;3.30;99.90;;;;;;5070378;28;20446;-51
2022/11/28 07:35:25;;;;;;;25.90;17.27;;;3.40;99.90;;;;;;5068016;28;20624;-51
2022/11/28 07:38:01;;;;;;;26.40;16.30;;;3.40;99.90;;;;;;5060726;28;20553;-51
2022/11/28 07:40:36;;;;;;;30.50;17.43;;;3.40;99.90;;;;;;5071409;28;20484;-52
2022/11/28 07:43:15;;;;;;;22.40;15.23;;;3.40;99.90;;;;;;5074257;28;20957;-53
2022/11/28 07:45:48;;;;;;;26.03;16.43;;;3.60;99.90;;;;;;5070632;28;20451;-52
2022/11/28 07:48:16;;;;;;;21.73;15.77;;;3.60;99.90;;;;;;5061564;28;20477;-52
2022/11/28 07:50:50;;;;;;;24.03;15.90;;;3.60;99.90;;;;;;5061430;28;20509;-52
2022/11/28 07:53:34;;;;;;;27.60;18.30;;;3.60;99.90;;;;;;5068918;28;20461;-52
2022/11/28 07:56:04;;;;;;;24.70;17.30;;;3.70;99.90;;;;;;5060701;28;20457;-52
2022/11/28 07:58:35;;;;;;;26.93;17.03;;;3.70;99.90;;;;;;5067806;28;21020;-52
2022/11/28 08:01:20;;;;;;;24.30;16.97;;;3.70;99.90;;;;;;5059895;28;20531;-52
2022/11/28 08:03:53;;;;;;;28.50;17.90;;;3.80;99.90;;;;;;5069937;28;20472;-52
2022/11/28 08:06:23;;;;;;;22.90;15.67;;;3.70;99.90;;;;;;5070136;28;20461;-52
2022/11/28 08:08:53;;;;;;;30.17;16.37;;;3.80;99.90;;;;;;5071741;28;21001;-52
2022/11/28 08:11:27;;;;;;;24.83;17.20;;;3.90;99.90;;;;;;5072025;28;20489;-51
2022/11/28 08:13:57;;;;;;;32.00;19.30;;;3.80;99.90;;;;;;5062118;28;20838;-52
2022/11/28 08:16:29;;;;;;;27.23;18.77;;;3.80;99.90;;;;;;5062247;28;20518;-51
2022/11/28 08:19:08;;;;;;;30.27;19.73;;;3.80;99.90;;;;;;5067392;28;20511;-52
2022/11/28 08:21:44;;;;;;;28.20;18.37;;;3.80;99.90;;;;;;5063760;28;20516;-51
2022/11/28 08:24:17;;;;;;;28.73;19.40;;;3.80;99.90;;;;;;5074653;28;20510;-52
2022/11/28 08:27:07;;;;;;;29.83;19.03;;;3.80;99.90;;;;;;5065205;28;20468;-53
2022/11/28 08:29:34;;;;;;;32.00;19.60;;;3.90;99.90;;;;;;5066943;28;20461;-52
2022/11/28 08:32:06;;;;;;;33.23;19.63;;;3.80;99.90;;;;;;5065376;28;20469;-51
2022/11/28 08:34:37;;;;;;;35.93;20.47;;;3.90;99.90;;;;;;5068423;28;20460;-52
2022/11/28 08:37:05;;;;;;;30.90;18.43;;;3.80;99.90;;;;;;5070539;28;20480;-52
2022/11/28 08:39:33;;;;;;;34.30;20.80;;;3.90;99.90;;;;;;5072437;28;20486;-52
2022/11/28 08:42:13;;;;;;;32.10;20.30;;;3.80;99.90;;;;;;5066445;28;20457;-52
2022/11/28 08:44:42;;;;;;;28.83;19.10;;;3.80;99.90;;;;;;5070853;28;20463;-51
2022/11/28 08:47:26;;;;;;;30.50;20.50;;;3.80;99.90;;;;;;5064372;28;20480;-52
2022/11/28 08:50:00;;;;;;;35.80;21.30;;;3.90;99.90;;;;;;5071110;28;20453;-52
2022/11/28 08:52:28;;;;;;;38.03;22.60;;;3.90;99.90;;;;;;5078548;28;20957;-51
2022/11/28 08:55:02;;;;;;;40.77;22.50;;;3.90;99.90;;;;;;5062464;28;20515;-52
2022/11/28 08:57:39;;;;;;;33.50;21.87;;;3.90;99.90;;;;;;5062808;28;20490;-52
2022/11/28 09:03:08;;;;;;;33.13;21.00;;;4.10;92.30;;;;;;5058475;28;20870;-52
2022/11/28 09:05:36;;;;;;;32.77;20.43;;;4.10;79.60;;;;;;5072338;28;20981;-52
2022/11/28 09:08:06;;;;;;;34.87;21.10;;;4.20;89.30;;;;;;5060600;28;20486;-52
2022/11/28 09:10:40;;;;;;;33.83;20.63;;;4.10;72.20;;;;;;5067258;28;20488;-51
2022/11/28 09:13:26;;;;;;;34.50;22.40;;;4.10;82.90;;;;;;5064818;28;21047;-52
2022/11/28 09:15:56;;;;;;;33.47;20.77;;;4.10;99.90;;;;;;5069423;28;20456;-52
2022/11/28 09:18:25;;;;;;;35.33;21.03;;;4.10;94.50;;;;;;5058812;28;20533;-52
2022/11/28 09:21:02;;;;;;;32.10;20.07;;;4.10;91.30;;;;;;5061553;28;20481;-53
2022/11/28 09:23:30;;;;;;;30.43;20.00;;;4.20;21.10;;;;;;5061653;28;20467;-51
2022/11/28 09:26:23;;;;;;;35.47;21.50;;;4.40;75.60;;;;;;5068700;28;20485;-52
2022/11/28 09:28:54;;;;;;;35.07;21.53;;;4.40;26.80;;;;;;5064170;28;20492;-52
2022/11/28 09:31:38;;;;;;;33.80;21.67;;;4.30;30.00;;;;;;5068718;28;20461;-51
2022/11/28 09:34:11;;;;;;;39.30;23.00;;;4.30;29.10;;;;;;5066731;28;20470;-52
2022/11/28 09:36:49;;;;;;;30.07;20.37;;;4.50;30.00;;;;;;5067485;28;20505;-52
2022/11/28 09:39:28;;;;;;;31.77;20.50;;;4.60;25.40;;;;;;5063086;28;20460;-51
2022/11/28 09:42:11;;;;;;;33.53;21.67;;;4.60;38.80;;;;;;5065275;28;20486;-52
2022/11/28 09:44:52;;;;;;;31.20;19.67;;;4.70;33.10;;;;;;5072400;28;20460;-52
2022/11/28 09:47:26;;;;;;;29.00;19.50;;;4.80;34.40;;;;;;5062733;28;20487;-53
2022/11/28 09:50:01;;;;;;;34.87;20.40;;;4.70;47.50;;;;;;5074842;28;20466;-52
2022/11/28 09:52:44;;;;;;;34.83;19.33;;;4.70;46.80;;;;;;5063574;28;20461;-52
2022/11/28 09:55:18;;;;;;;31.30;21.60;;;4.70;38.40;;;;;;5071584;28;20635;-51
2022/11/28 09:57:57;;;;;;;30.37;19.67;;;4.70;41.80;;;;;;5069837;28;20480;-51
2022/11/28 10:00:40;;;;;;;30.13;20.67;;;4.70;45.10;;;;;;5069093;28;20484;-53
2022/11/28 10:03:47;;;;;;;38.73;20.27;;;4.70;46.50;;;;;;5069731;28;20465;-52
2022/11/28 10:06:25;;;;;;;33.27;21.10;;;4.60;45.10;;;;;;5062695;28;20552;-52
2022/11/28 10:09:09;;;;;;;33.40;21.03;;;4.70;36.60;;;;;;5062758;28;20813;-52
2022/11/28 10:11:49;;;;;;;34.83;21.23;;;4.70;47.90;;;;;;5072973;28;20832;-52
2022/11/28 10:14:55;;;;;;;39.57;21.70;;;4.70;39.60;;;;;;5051729;28;20442;-52
2022/11/28 10:17:37;;;;;;;36.57;20.63;;;4.60;50.60;;;;;;5082703;28;21008;-52
2022/11/28 10:20:11;;;;;;;27.73;18.77;;;4.70;46.30;;;;;;5088711;28;20444;-52
2022/11/28 10:23:05;;;;;;;32.43;20.13;;;4.70;41.50;;;;;;5068499;28;20471;-52
2022/11/28 10:25:42;;;;;;;30.87;19.50;;;4.70;41.60;;;;;;5061572;28;20850;-52
2022/11/28 10:28:19;;;;;;;28.47;19.17;;;4.70;43.50;;;;;;5061784;28;20469;-57
2022/11/28 10:30:59;;;;;;;35.77;19.37;;;4.80;45.70;;;;;;5051317;28;20441;-52
2022/11/28 10:33:51;;;;;;;35.90;20.03;;;4.80;45.90;;;;;;5051234;28;20838;-52
2022/11/28 10:36:24;;;;;;;34.80;19.93;;;4.80;45.20;;;;;;5061729;28;20986;-52
2022/11/28 10:38:58;;;;;;;34.63;20.17;;;4.70;43.40;;;;;;5069330;28;21428;-51
2022/11/28 10:41:36;;;;;;;36.57;21.73;;;4.80;41.50;;;;;;5071967;28;20556;-52
2022/11/28 10:44:11;;;;;;;33.97;19.30;;;4.80;43.00;;;;;;5071216;28;20445;-52
2022/11/28 10:46:59;;;;;;;30.93;19.93;;;4.90;39.50;;;;;;5075233;28;21045;-52
2022/11/28 10:49:42;;;;;;;31.83;18.23;;;5.00;54.50;;;;;;5067079;28;20496;-52
2022/11/28 10:52:14;;;;;;;39.27;22.27;;;5.10;51.60;;;;;;5080475;28;20530;-53
2022/11/28 10:54:57;;;;;;;34.13;21.67;;;5.20;48.10;;;;;;5073804;28;20452;-53
2022/11/28 10:57:31;;;;;;;34.20;19.80;;;5.10;57.70;;;;;;5074847;28;20456;-53
2022/11/28 11:00:05;;;;;;;35.60;19.10;;;5.20;48.50;;;;;;5078866;28;21045;-53
2022/11/28 11:02:37;;;;;;;34.10;19.10;;;5.10;58.90;;;;;;5073582;28;20460;-53
2022/11/28 11:05:11;;;;;;;36.30;20.23;;;5.20;52.10;;;;;;5064319;28;20461;-53
2022/11/28 11:07:38;;;;;;;31.10;18.53;;;5.20;63.70;;;;;;5076464;28;20563;-53
2022/11/28 11:10:15;;;;;;;32.00;20.20;;;5.20;61.20;;;;;;5084182;28;20456;-52
2022/11/28 11:12:43;;;;;;;32.73;20.67;;;5.30;58.30;;;;;;5078333;28;20467;-54
2022/11/28 11:15:29;;;;;;;34.47;20.13;;;5.20;66.50;;;;;;5076381;28;20511;-53
2022/11/28 11:17:56;;;;;;;33.40;20.27;;;5.30;59.20;;;;;;5071630;28;20465;-53
2022/11/28 11:20:36;;;;;;;32.73;19.00;;;5.20;63.40;;;;;;5072380;28;20513;-53
2022/11/28 11:23:12;;;;;;;36.87;20.90;;;5.30;54.40;;;;;;5067140;28;20448;-53
2022/11/28 11:25:47;;;;;;;31.70;18.60;;;5.30;57.10;;;;;;5076086;28;20464;-53
2022/11/28 11:28:27;;;;;;;35.03;19.43;;;5.30;62.20;;;;;;5071422;28;20477;-53
2022/11/28 11:30:59;;;;;;;36.37;20.40;;;5.30;64.00;;;;;;5077036;28;20448;-52
2022/11/28 11:33:33;;;;;;;31.87;19.50;;;5.40;62.90;;;;;;5067740;28;20445;-51
2022/11/28 11:36:03;;;;;;;31.87;19.60;;;5.40;71.20;;;;;;5077915;28;20457;-53
2022/11/28 11:38:33;;;;;;;38.20;20.60;;;5.40;64.40;;;;;;5072562;28;21004;-53
2022/11/28 11:41:20;;;;;;;35.20;20.50;;;5.30;75.70;;;;;;5071089;28;20484;-54
2022/11/28 11:43:46;;;;;;;37.10;22.20;;;5.40;64.00;;;;;;5067338;28;20494;-52
2022/11/28 11:46:14;;;;;;;39.60;20.27;;;5.50;70.80;;;;;;5076157;28;20514;-54
2022/11/28 11:48:43;;;;;;;28.43;19.40;;;5.40;80.80;;;;;;5076471;28;20978;-53
2022/11/28 11:51:23;;;;;;;31.80;20.10;;;5.50;69.50;;;;;;5076692;28;20461;-53
2022/11/28 11:54:00;;;;;;;38.00;21.50;;;5.60;69.70;;;;;;5075722;28;20488;-54
2022/11/28 11:56:28;;;;;;;33.50;21.03;;;5.50;74.10;;;;;;5081505;28;20475;-53
2022/11/28 11:58:58;;;;;;;29.77;20.70;;;5.60;74.60;;;;;;5061807;28;20458;-54
2022/11/28 12:01:26;;;;;;;40.10;20.77;;;5.70;66.00;;;;;;5084544;28;20481;-53
2022/11/28 12:03:56;;;;;;;33.30;20.23;;;5.60;73.40;;;;;;5062675;28;20438;-53
2022/11/28 12:06:27;;;;;;;31.00;19.70;;;5.60;79.10;;;;;;5073053;28;20464;-53
2022/11/28 12:09:03;;;;;;;36.47;20.70;;;5.60;81.60;;;;;;5068939;28;20477;-53
2022/11/28 12:11:35;;;;;;;31.43;18.93;;;5.70;76.80;;;;;;5076910;28;20915;-53
2022/11/28 12:14:14;;;;;;;34.83;21.60;;;5.70;73.10;;;;;;5054249;28;20864;-53
2022/11/28 12:16:51;;;;;;;35.30;20.70;;;5.80;72.80;;;;;;5080046;28;20444;-53
2022/11/28 12:19:27;;;;;;;39.10;22.73;;;5.70;70.50;;;;;;5094233;28;20447;-54
2022/11/28 12:22:07;;;;;;;35.40;21.67;;;5.80;74.30;;;;;;5093741;28;20991;-53
2022/11/28 12:24:43;;;;;;;31.70;19.23;;;5.70;70.30;;;;;;5073817;28;20512;-52
2022/11/28 12:27:32;;;;;;;34.03;21.13;;;5.70;69.40;;;;;;5053412;28;21033;-53
2022/11/28 12:30:16;;;;;;;36.80;19.47;;;5.70;73.10;;;;;;5069148;28;20449;-58
2022/11/28 12:32:54;;;;;;;35.90;20.93;;;5.70;71.60;;;;;;5055749;28;20438;-57
2022/11/28 12:35:28;;;;;;;35.23;20.27;;;5.70;69.60;;;;;;5058311;28;21069;-57
2022/11/28 12:38:02;;;;;;;32.73;21.13;;;5.60;70.90;;;;;;5070605;28;20609;-58
2022/11/28 12:40:35;;;;;;;33.93;20.07;;;5.50;70.10;;;;;;5068048;28;20982;-58
2022/11/28 12:43:17;;;;;;;32.20;20.63;;;5.40;70.40;;;;;;5072926;28;20456;-57
2022/11/28 12:45:50;;;;;;;39.73;20.80;;;5.50;66.20;;;;;;5082393;28;20540;-57
2022/11/28 12:48:39;;;;;;;41.93;21.83;;;5.40;66.30;;;;;;5073371;28;20465;-58
2022/11/28 12:51:18;;;;;;;35.60;22.00;;;5.50;63.10;;;;;;5071688;28;20500;-58
2022/11/28 12:53:57;;;;;;;36.13;19.13;;;5.40;68.90;;;;;;5067738;28;20578;-58
2022/11/28 12:56:34;;;;;;;36.20;20.50;;;5.40;64.00;;;;;;5070836;28;20876;-58
2022/11/28 12:59:07;;;;;;;35.03;20.40;;;5.40;67.00;;;;;;5072593;28;20506;-58
2022/11/28 13:01:45;;;;;;;28.77;18.87;;;5.40;64.90;;;;;;5066675;28;20535;-58
2022/11/28 13:04:20;;;;;;;39.40;22.80;;;5.40;68.60;;;;;;5067511;28;20464;-58
2022/11/28 13:06:56;;;;;;;33.00;20.40;;;5.30;66.50;;;;;;5079701;28;20452;-58